createdAt,value
2017-09-21T00:00:23.441Z,17.52
2017-09-21T00:00:51.468Z,17.54
2017-09-21T00:01:19.661Z,17.47
2017-09-21T00:01:47.795Z,17.5
2017-09-21T00:02:15.989Z,17.55
2017-09-21T00:02:44.035Z,17.52
2017-09-21T00:03:12.116Z,17.57
2017-09-21T00:03:40.278Z,17.55
2017-09-21T00:04:08.325Z,17.63
2017-09-21T00:04:36.349Z,17.54
2017-09-21T00:05:04.079Z,17.65
2017-09-21T00:05:32.151Z,17.57
2017-09-21T00:06:00.312Z,17.58
2017-09-21T00:06:28.472Z,17.65
2017-09-21T00:06:56.706Z,17.63
2017-09-21T00:07:24.760Z,17.62
2017-09-21T00:07:52.960Z,17.66
2017-09-21T00:08:21.029Z,17.65
2017-09-21T00:08:49.189Z,17.65
2017-09-21T00:09:17.245Z,17.66
2017-09-21T00:09:45.066Z,17.66
2017-09-21T00:10:13.185Z,17.68
2017-09-21T00:10:41.348Z,17.63
2017-09-21T00:11:09.511Z,17.62
2017-09-21T00:11:37.554Z,17.52
2017-09-21T00:12:05.814Z,17.57
2017-09-21T00:12:33.841Z,17.52
2017-09-21T00:13:01.976Z,17.46
2017-09-21T00:13:30.054Z,17.46
2017-09-21T00:13:58.019Z,17.5
2017-09-21T00:14:26.165Z,17.49
2017-09-21T00:14:54.214Z,17.47
2017-09-21T00:15:22.351Z,17.39
2017-09-21T00:15:50.499Z,17.46
2017-09-21T00:16:18.424Z,17.49
2017-09-21T00:16:46.377Z,17.39
2017-09-21T00:17:14.654Z,17.27
2017-09-21T00:17:42.703Z,17.32
2017-09-21T00:18:10.848Z,17.36
2017-09-21T00:18:38.826Z,17.28
2017-09-21T00:19:06.962Z,17.31
2017-09-21T00:19:34.983Z,17.28
2017-09-21T00:20:03.109Z,17.32
2017-09-21T00:20:31.152Z,17.28
2017-09-21T00:20:59.324Z,17.22
2017-09-21T00:21:27.470Z,17.38
2017-09-21T00:21:55.503Z,17.32
2017-09-21T00:22:23.590Z,17.36
2017-09-21T00:22:51.739Z,17.32
2017-09-21T00:23:19.877Z,17.32
2017-09-21T00:23:47.953Z,17.31
2017-09-21T00:24:16.088Z,17.32
2017-09-21T00:24:44.246Z,17.38
2017-09-21T00:25:12.267Z,17.38
2017-09-21T00:25:40.422Z,17.47
2017-09-21T00:26:08.473Z,17.42
2017-09-21T00:26:36.500Z,17.38
2017-09-21T00:27:04.556Z,17.39
2017-09-21T00:27:32.705Z,17.3
2017-09-21T00:28:00.878Z,17.38
2017-09-21T00:28:28.929Z,17.3
2017-09-21T00:28:57.085Z,17.32
2017-09-21T00:29:25.017Z,17.32
2017-09-21T00:29:53.158Z,17.32
2017-09-21T00:30:21.335Z,17.35
2017-09-21T00:30:49.481Z,17.27
2017-09-21T00:31:17.419Z,17.18
2017-09-21T00:31:45.464Z,17.25
2017-09-21T00:32:13.622Z,17.2
2017-09-21T00:32:41.777Z,17.22
2017-09-21T00:33:09.719Z,17.21
2017-09-21T00:33:37.890Z,17.22
2017-09-21T00:34:05.909Z,17.22
2017-09-21T00:34:34.072Z,17.22
2017-09-21T00:35:02.228Z,17.3
2017-09-21T00:35:30.392Z,17.22
2017-09-21T00:35:58.451Z,17.36
2017-09-21T00:36:26.571Z,17.35
2017-09-21T00:36:54.763Z,17.22
2017-09-21T00:37:22.800Z,17.32
2017-09-21T00:37:50.767Z,17.32
2017-09-21T00:38:18.919Z,17.38
2017-09-21T00:38:46.986Z,17.35
2017-09-21T00:39:15.123Z,17.28
2017-09-21T00:39:43.172Z,17.28
2017-09-21T00:40:11.292Z,17.35
2017-09-21T00:40:39.428Z,17.32
2017-09-21T00:41:07.595Z,17.36
2017-09-21T00:41:35.772Z,17.31
2017-09-21T00:42:03.944Z,17.22
2017-09-21T00:42:32.210Z,17.32
2017-09-21T00:43:00.141Z,17.3
2017-09-21T00:43:28.081Z,17.27
2017-09-21T00:43:56.226Z,17.3
2017-09-21T00:44:24.400Z,17.27
2017-09-21T00:44:52.544Z,17.17
2017-09-21T00:45:20.516Z,17.22
2017-09-21T00:45:48.458Z,17.27
2017-09-21T00:46:16.495Z,17.22
2017-09-21T00:46:44.572Z,17.32
2017-09-21T00:47:12.663Z,17.36
2017-09-21T00:47:40.921Z,17.36
2017-09-21T00:48:09.030Z,17.36
2017-09-21T00:48:37.185Z,17.3
2017-09-21T00:49:05.344Z,17.39
2017-09-21T00:49:33.488Z,17.32
2017-09-21T00:50:01.655Z,17.38
2017-09-21T00:50:29.749Z,17.43
2017-09-21T00:50:57.885Z,17.39
2017-09-21T00:51:26.040Z,17.39
2017-09-21T00:51:54.111Z,17.45
2017-09-21T00:52:22.247Z,17.45
2017-09-21T00:52:50.318Z,17.42
2017-09-21T00:53:18.361Z,17.45
2017-09-21T00:53:46.420Z,17.45
2017-09-21T00:54:14.571Z,17.5
2017-09-21T00:54:42.638Z,17.5
2017-09-21T00:55:10.751Z,17.45
2017-09-21T00:55:38.785Z,17.46
2017-09-21T00:56:06.833Z,17.49
2017-09-21T00:56:34.992Z,17.47
2017-09-21T00:57:03.112Z,17.52
2017-09-21T00:57:31.358Z,17.52
2017-09-21T00:57:59.367Z,17.49
2017-09-21T00:58:27.323Z,17.52
2017-09-21T00:58:55.373Z,17.49
2017-09-21T00:59:23.405Z,17.55
2017-09-21T00:59:51.591Z,17.5
2017-09-21T01:00:19.740Z,17.52
2017-09-21T01:00:47.797Z,17.54
2017-09-21T01:01:15.951Z,17.57
2017-09-21T01:01:44.101Z,17.49
2017-09-21T01:02:12.295Z,17.57
2017-09-21T01:02:40.588Z,17.55
2017-09-21T01:03:08.765Z,17.5
2017-09-21T01:03:36.899Z,17.54
2017-09-21T01:04:05.050Z,17.52
2017-09-21T01:04:33.182Z,17.46
2017-09-21T01:05:01.313Z,17.54
2017-09-21T01:05:29.178Z,17.49
2017-09-21T01:05:57.322Z,17.47
2017-09-21T01:06:25.482Z,17.43
2017-09-21T01:06:53.564Z,17.39
2017-09-21T01:07:21.640Z,17.36
2017-09-21T01:07:49.806Z,17.28
2017-09-21T01:08:17.721Z,17.32
2017-09-21T01:08:45.889Z,17.38
2017-09-21T01:09:14.015Z,17.35
2017-09-21T01:09:42.061Z,17.36
2017-09-21T01:10:10.108Z,17.36
2017-09-21T01:10:38.285Z,17.24
2017-09-21T01:11:06.327Z,17.17
2017-09-21T01:11:34.442Z,17.22
2017-09-21T01:12:02.590Z,17.2
2017-09-21T01:12:30.664Z,17.15
2017-09-21T01:12:58.816Z,17.13
2017-09-21T01:13:26.653Z,17.17
2017-09-21T01:13:54.489Z,17.09
2017-09-21T01:14:22.663Z,17.05
2017-09-21T01:14:50.725Z,17.09
2017-09-21T01:15:18.834Z,17.07
2017-09-21T01:15:46.976Z,17.05
2017-09-21T01:16:15.138Z,17.06
2017-09-21T01:16:43.197Z,17.05
2017-09-21T01:17:11.260Z,16.99
2017-09-21T01:17:39.269Z,16.95
2017-09-21T01:18:07.503Z,16.99
2017-09-21T01:18:35.560Z,16.95
2017-09-21T01:19:03.685Z,16.92
2017-09-21T01:19:31.642Z,16.99
2017-09-21T01:19:59.688Z,16.94
2017-09-21T01:20:27.766Z,16.94
2017-09-21T01:20:55.924Z,17.02
2017-09-21T01:21:24.069Z,16.94
2017-09-21T01:21:52.132Z,16.99
2017-09-21T01:22:20.188Z,16.95
2017-09-21T01:22:48.302Z,16.9
2017-09-21T01:23:16.329Z,16.9
2017-09-21T01:23:44.397Z,16.94
2017-09-21T01:24:12.525Z,16.85
2017-09-21T01:24:40.545Z,16.81
2017-09-21T01:25:08.596Z,16.84
2017-09-21T01:25:36.752Z,16.88
2017-09-21T01:26:04.846Z,16.84
2017-09-21T01:26:32.990Z,16.9
2017-09-21T01:27:01.162Z,16.8
2017-09-21T01:27:29.293Z,16.84
2017-09-21T01:27:57.446Z,16.8
2017-09-21T01:28:25.494Z,16.9
2017-09-21T01:28:53.658Z,16.88
2017-09-21T01:29:21.784Z,16.81
2017-09-21T01:29:49.893Z,16.74
2017-09-21T01:30:18.035Z,16.81
2017-09-21T01:30:46.194Z,16.81
2017-09-21T01:31:14.144Z,16.76
2017-09-21T01:31:42.225Z,16.77
2017-09-21T01:32:10.374Z,16.74
2017-09-21T01:32:38.390Z,16.84
2017-09-21T01:33:06.489Z,16.82
2017-09-21T01:33:34.512Z,16.77
2017-09-21T01:34:02.568Z,16.76
2017-09-21T01:34:30.628Z,16.8
2017-09-21T01:34:58.629Z,16.76
2017-09-21T01:35:26.772Z,16.8
2017-09-21T01:35:54.816Z,16.77
2017-09-21T01:36:22.840Z,16.74
2017-09-21T01:36:50.870Z,16.84
2017-09-21T01:37:19.030Z,16.8
2017-09-21T01:37:46.975Z,16.73
2017-09-21T01:38:15.230Z,16.76
2017-09-21T01:38:43.188Z,16.73
2017-09-21T01:39:11.308Z,16.69
2017-09-21T01:39:39.364Z,16.74
2017-09-21T01:40:07.557Z,16.69
2017-09-21T01:40:35.594Z,16.69
2017-09-21T01:41:03.724Z,16.76
2017-09-21T01:41:31.769Z,16.76
2017-09-21T01:41:59.710Z,16.72
2017-09-21T01:42:27.844Z,16.74
2017-09-21T01:42:56.001Z,16.7
2017-09-21T01:43:24.033Z,16.74
2017-09-21T01:43:52.081Z,16.72
2017-09-21T01:44:20.128Z,16.77
2017-09-21T01:44:48.166Z,16.7
2017-09-21T01:45:16.213Z,16.74
2017-09-21T01:45:44.250Z,16.67
2017-09-21T01:46:12.289Z,16.73
2017-09-21T01:46:40.442Z,16.69
2017-09-21T01:47:08.573Z,16.76
2017-09-21T01:47:36.520Z,16.72
2017-09-21T01:48:04.687Z,16.73
2017-09-21T01:48:32.856Z,16.7
2017-09-21T01:49:00.910Z,16.72
2017-09-21T01:49:28.874Z,16.65
2017-09-21T01:49:56.908Z,16.72
2017-09-21T01:50:25.049Z,16.7
2017-09-21T01:50:53.069Z,16.69
2017-09-21T01:51:21.215Z,16.72
2017-09-21T01:51:49.237Z,16.72
2017-09-21T01:52:17.352Z,16.7
2017-09-21T01:52:45.427Z,16.72
2017-09-21T01:53:13.545Z,16.74
2017-09-21T01:53:41.585Z,16.69
2017-09-21T01:54:09.696Z,16.66
2017-09-21T01:54:37.766Z,16.66
2017-09-21T01:55:05.836Z,16.74
2017-09-21T01:55:33.984Z,16.69
2017-09-21T01:56:02.081Z,16.66
2017-09-21T01:56:30.210Z,16.59
2017-09-21T01:56:58.269Z,16.73
2017-09-21T01:57:26.307Z,16.69
2017-09-21T01:57:54.453Z,16.62
2017-09-21T01:58:22.704Z,16.59
2017-09-21T01:58:50.669Z,16.72
2017-09-21T01:59:18.804Z,16.65
2017-09-21T01:59:46.845Z,16.73
2017-09-21T02:00:14.911Z,16.69
2017-09-21T02:00:42.952Z,16.77
2017-09-21T02:01:11.081Z,16.69
2017-09-21T02:01:39.222Z,16.62
2017-09-21T02:02:07.180Z,16.69
2017-09-21T02:02:35.270Z,16.73
2017-09-21T02:03:03.296Z,16.63
2017-09-21T02:03:31.545Z,16.63
2017-09-21T02:03:59.587Z,16.63
2017-09-21T02:05:10.590Z,16.63
2017-09-21T02:05:38.611Z,16.65
2017-09-21T02:06:06.676Z,16.58
2017-09-21T02:06:34.572Z,16.69
2017-09-21T02:07:02.681Z,16.63
2017-09-21T02:07:30.671Z,16.66
2017-09-21T02:07:58.667Z,16.63
2017-09-21T02:08:27.081Z,16.62
2017-09-21T02:08:54.972Z,16.65
2017-09-21T02:09:23.114Z,16.66
2017-09-21T02:09:51.121Z,16.63
2017-09-21T02:10:19.221Z,16.65
2017-09-21T02:10:47.270Z,16.63
2017-09-21T02:11:15.338Z,16.63
2017-09-21T02:11:43.351Z,16.66
2017-09-21T02:12:11.341Z,16.63
2017-09-21T02:12:39.457Z,16.63
2017-09-21T02:13:07.513Z,16.62
2017-09-21T02:13:35.581Z,16.65
2017-09-21T02:14:03.491Z,16.63
2017-09-21T02:14:31.576Z,16.65
2017-09-21T02:14:59.565Z,16.65
2017-09-21T02:15:27.657Z,16.66
2017-09-21T02:15:55.660Z,16.63
2017-09-21T02:16:23.352Z,16.63
2017-09-21T02:16:51.349Z,16.66
2017-09-21T02:17:19.464Z,16.58
2017-09-21T02:17:47.497Z,16.52
2017-09-21T02:18:15.491Z,16.52
2017-09-21T02:18:43.686Z,16.51
2017-09-21T02:19:11.677Z,16.51
2017-09-21T02:19:39.818Z,16.57
2017-09-21T02:20:07.902Z,16.52
2017-09-21T02:20:35.825Z,16.51
2017-09-21T02:21:03.801Z,16.54
2017-09-21T02:21:31.779Z,16.49
2017-09-21T02:21:59.694Z,16.42
2017-09-21T02:22:27.711Z,16.49
2017-09-21T02:22:55.850Z,16.48
2017-09-21T02:23:23.957Z,16.47
2017-09-21T02:23:52.031Z,16.45
2017-09-21T02:24:19.913Z,16.47
2017-09-21T02:24:47.908Z,16.44
2017-09-21T02:25:15.911Z,16.49
2017-09-21T02:25:43.928Z,16.39
2017-09-21T02:26:11.971Z,16.39
2017-09-21T02:26:40.021Z,16.48
2017-09-21T02:27:08.037Z,16.42
2017-09-21T02:27:36.001Z,16.45
2017-09-21T02:28:03.924Z,16.44
2017-09-21T02:28:32.044Z,16.39
2017-09-21T02:29:00.115Z,16.44
2017-09-21T02:29:28.150Z,16.34
2017-09-21T02:29:56.171Z,16.4
2017-09-21T02:30:24.286Z,16.39
2017-09-21T02:30:52.386Z,16.37
2017-09-21T02:31:20.527Z,16.42
2017-09-21T02:31:48.694Z,16.48
2017-09-21T02:32:16.615Z,16.42
2017-09-21T02:32:44.746Z,16.47
2017-09-21T02:33:12.893Z,16.42
2017-09-21T02:33:41.064Z,16.48
2017-09-21T02:34:09.112Z,16.51
2017-09-21T02:34:37.068Z,16.54
2017-09-21T02:35:05.203Z,16.49
2017-09-21T02:35:33.235Z,16.51
2017-09-21T02:36:01.168Z,16.49
2017-09-21T02:36:29.333Z,16.49
2017-09-21T02:36:57.446Z,16.52
2017-09-21T02:37:25.525Z,16.49
2017-09-21T02:37:53.565Z,16.55
2017-09-21T02:38:21.650Z,16.49
2017-09-21T02:38:49.816Z,16.52
2017-09-21T02:39:17.751Z,16.48
2017-09-21T02:39:45.920Z,16.48
2017-09-21T02:40:13.970Z,16.47
2017-09-21T02:40:42.103Z,16.52
2017-09-21T02:41:10.159Z,16.51
2017-09-21T02:41:38.335Z,16.49
2017-09-21T02:42:06.380Z,16.49
2017-09-21T02:42:34.421Z,16.49
2017-09-21T02:43:02.365Z,16.51
2017-09-21T02:43:30.406Z,16.54
2017-09-21T02:43:58.561Z,16.49
2017-09-21T02:44:26.701Z,16.52
2017-09-21T02:44:54.743Z,16.49
2017-09-21T02:45:22.864Z,16.48
2017-09-21T02:45:50.902Z,16.55
2017-09-21T02:46:19.028Z,16.49
2017-09-21T02:46:46.957Z,16.52
2017-09-21T02:47:15.104Z,16.49
2017-09-21T02:47:43.130Z,16.52
2017-09-21T02:48:11.283Z,16.49
2017-09-21T02:48:39.558Z,16.52
2017-09-21T02:49:07.698Z,16.52
2017-09-21T02:49:35.862Z,16.55
2017-09-21T02:50:03.917Z,16.52
2017-09-21T02:50:31.967Z,16.48
2017-09-21T02:51:00.003Z,16.47
2017-09-21T02:51:28.038Z,16.45
2017-09-21T02:51:56.070Z,16.48
2017-09-21T02:52:24.199Z,16.52
2017-09-21T02:52:52.231Z,16.55
2017-09-21T02:53:20.405Z,16.49
2017-09-21T02:53:48.697Z,16.48
2017-09-21T02:54:16.820Z,16.51
2017-09-21T02:54:45.000Z,16.45
2017-09-21T02:55:12.972Z,16.48
2017-09-21T02:55:41.122Z,16.48
2017-09-21T02:56:09.184Z,16.49
2017-09-21T02:56:37.333Z,16.47
2017-09-21T02:57:05.477Z,16.54
2017-09-21T02:57:33.607Z,16.52
2017-09-21T02:58:01.750Z,16.52
2017-09-21T02:58:29.802Z,16.57
2017-09-21T02:58:57.918Z,16.54
2017-09-21T02:59:25.982Z,16.55
2017-09-21T02:59:54.111Z,16.52
2017-09-21T03:00:22.255Z,16.58
2017-09-21T03:00:50.017Z,16.55
2017-09-21T03:01:17.849Z,16.58
2017-09-21T03:01:45.799Z,16.55
2017-09-21T03:02:13.873Z,16.59
2017-09-21T03:02:41.962Z,16.54
2017-09-21T03:03:10.031Z,16.49
2017-09-21T03:03:38.181Z,16.59
2017-09-21T03:04:06.419Z,16.49
2017-09-21T03:04:34.566Z,16.54
2017-09-21T03:05:02.590Z,16.49
2017-09-21T03:05:30.637Z,16.51
2017-09-21T03:05:58.796Z,16.55
2017-09-21T03:06:26.832Z,16.49
2017-09-21T03:06:55.002Z,16.59
2017-09-21T03:07:23.177Z,16.59
2017-09-21T03:07:51.360Z,16.55
2017-09-21T03:08:19.388Z,16.52
2017-09-21T03:08:47.445Z,16.58
2017-09-21T03:09:15.658Z,16.51
2017-09-21T03:09:43.723Z,16.51
2017-09-21T03:10:11.889Z,16.52
2017-09-21T03:10:39.830Z,16.42
2017-09-21T03:11:07.896Z,16.45
2017-09-21T03:11:35.877Z,16.47
2017-09-21T03:12:04.029Z,16.47
2017-09-21T03:12:32.087Z,16.54
2017-09-21T03:13:00.224Z,16.47
2017-09-21T03:13:28.193Z,16.49
2017-09-21T03:13:56.471Z,16.51
2017-09-21T03:14:24.433Z,16.51
2017-09-21T03:14:52.568Z,16.49
2017-09-21T03:15:20.705Z,16.55
2017-09-21T03:15:48.458Z,16.58
2017-09-21T03:16:16.504Z,16.54
2017-09-21T03:16:44.562Z,16.52
2017-09-21T03:17:12.598Z,16.55
2017-09-21T03:17:40.648Z,16.55
2017-09-21T03:18:08.607Z,16.55
2017-09-21T03:18:36.777Z,16.51
2017-09-21T03:19:05.023Z,16.48
2017-09-21T03:19:33.154Z,16.51
2017-09-21T03:20:01.193Z,16.52
2017-09-21T03:20:29.214Z,16.57
2017-09-21T03:20:57.273Z,16.48
2017-09-21T03:21:25.285Z,16.55
2017-09-21T03:21:53.232Z,16.49
2017-09-21T03:22:21.400Z,16.58
2017-09-21T03:22:49.335Z,16.51
2017-09-21T03:23:17.488Z,16.59
2017-09-21T03:23:45.526Z,16.63
2017-09-21T03:24:13.767Z,16.55
2017-09-21T03:24:41.896Z,16.52
2017-09-21T03:25:09.851Z,16.52
2017-09-21T03:25:37.908Z,16.49
2017-09-21T03:26:05.850Z,16.48
2017-09-21T03:26:33.972Z,16.47
2017-09-21T03:27:02.128Z,16.54
2017-09-21T03:27:30.073Z,16.51
2017-09-21T03:27:58.007Z,16.49
2017-09-21T03:28:26.144Z,16.49
2017-09-21T03:28:54.292Z,16.52
2017-09-21T03:29:22.434Z,16.49
2017-09-21T03:29:50.456Z,16.49
2017-09-21T03:30:18.413Z,16.48
2017-09-21T03:30:46.458Z,16.45
2017-09-21T03:31:14.402Z,16.51
2017-09-21T03:31:42.433Z,16.44
2017-09-21T03:32:10.551Z,16.47
2017-09-21T03:32:38.542Z,16.51
2017-09-21T03:33:06.579Z,16.36
2017-09-21T03:33:34.705Z,16.49
2017-09-21T03:34:02.669Z,16.48
2017-09-21T03:34:30.918Z,16.37
2017-09-21T03:34:59.060Z,16.37
2017-09-21T03:35:27.176Z,16.39
2017-09-21T03:35:55.135Z,16.33
2017-09-21T03:36:23.164Z,16.37
2017-09-21T03:36:51.193Z,16.34
2017-09-21T03:37:19.214Z,16.33
2017-09-21T03:37:47.233Z,16.39
2017-09-21T03:38:15.378Z,16.36
2017-09-21T03:38:43.394Z,16.36
2017-09-21T03:39:11.524Z,16.34
2017-09-21T03:39:39.635Z,16.34
2017-09-21T03:40:07.659Z,16.36
2017-09-21T03:40:35.801Z,16.37
2017-09-21T03:41:03.758Z,16.34
2017-09-21T03:41:31.888Z,16.3
2017-09-21T03:41:59.840Z,16.26
2017-09-21T03:42:27.847Z,16.33
2017-09-21T03:42:55.790Z,16.32
2017-09-21T03:43:23.839Z,16.22
2017-09-21T03:43:51.974Z,16.21
2017-09-21T03:44:20.130Z,16.33
2017-09-21T03:44:48.074Z,16.3
2017-09-21T03:45:16.221Z,16.18
2017-09-21T03:45:44.266Z,16.22
2017-09-21T03:46:12.322Z,16.36
2017-09-21T03:46:40.274Z,16.25
2017-09-21T03:47:08.222Z,16.14
2017-09-21T03:47:36.274Z,16.25
2017-09-21T03:48:04.121Z,16.27
2017-09-21T03:48:32.281Z,16.32
2017-09-21T03:49:00.421Z,16.3
2017-09-21T03:49:28.495Z,16.29
2017-09-21T03:49:56.647Z,16.29
2017-09-21T03:50:24.609Z,16.34
2017-09-21T03:50:52.637Z,16.32
2017-09-21T03:51:20.463Z,16.36
2017-09-21T03:51:48.593Z,16.45
2017-09-21T03:52:16.528Z,16.37
2017-09-21T03:52:44.572Z,16.45
2017-09-21T03:53:12.719Z,16.39
2017-09-21T03:53:40.780Z,16.37
2017-09-21T03:54:08.923Z,16.36
2017-09-21T03:54:37.019Z,16.39
2017-09-21T03:55:05.188Z,16.34
2017-09-21T03:55:33.215Z,16.37
2017-09-21T03:56:01.263Z,16.48
2017-09-21T03:56:29.300Z,16.47
2017-09-21T03:56:57.418Z,16.54
2017-09-21T03:57:25.466Z,16.47
2017-09-21T03:57:53.384Z,16.58
2017-09-21T03:58:21.506Z,16.49
2017-09-21T03:58:49.647Z,16.52
2017-09-21T03:59:17.674Z,16.54
2017-09-21T03:59:45.811Z,16.58
2017-09-21T04:00:13.949Z,16.65
2017-09-21T04:00:41.990Z,16.63
2017-09-21T04:01:10.028Z,16.63
2017-09-21T04:01:38.159Z,16.65
2017-09-21T04:02:06.197Z,16.7
2017-09-21T04:02:34.363Z,16.62
2017-09-21T04:03:02.498Z,16.66
2017-09-21T04:03:30.542Z,16.58
2017-09-21T04:03:58.478Z,16.62
2017-09-21T04:04:26.517Z,16.65
2017-09-21T04:04:54.475Z,16.74
2017-09-21T04:05:22.404Z,16.7
2017-09-21T04:05:50.430Z,16.72
2017-09-21T04:06:31.076Z,16.73
2017-09-21T04:06:59.107Z,16.7
2017-09-21T04:07:27.238Z,16.77
2017-09-21T04:07:55.303Z,16.74
2017-09-21T04:08:23.419Z,16.73
2017-09-21T04:08:51.454Z,16.81
2017-09-21T04:09:19.477Z,16.84
2017-09-21T04:09:47.736Z,16.81
2017-09-21T04:10:15.856Z,16.8
2017-09-21T04:10:43.800Z,16.73
2017-09-21T04:11:11.818Z,16.76
2017-09-21T04:11:39.944Z,16.77
2017-09-21T04:12:08.080Z,16.88
2017-09-21T04:12:36.211Z,16.77
2017-09-21T04:13:04.133Z,16.76
2017-09-21T04:13:32.054Z,16.9
2017-09-21T04:13:59.902Z,16.9
2017-09-21T04:14:27.927Z,16.85
2017-09-21T04:14:56.152Z,16.84
2017-09-21T04:15:24.182Z,16.88
2017-09-21T04:15:52.303Z,16.82
2017-09-21T04:16:20.319Z,16.74
2017-09-21T04:16:48.157Z,16.77
2017-09-21T04:17:16.295Z,16.8
2017-09-21T04:17:44.326Z,16.7
2017-09-21T04:18:12.485Z,16.76
2017-09-21T04:18:40.320Z,16.81
2017-09-21T04:19:08.340Z,16.81
2017-09-21T04:19:36.585Z,16.73
2017-09-21T04:20:04.622Z,16.82
2017-09-21T04:20:32.650Z,16.81
2017-09-21T04:21:00.774Z,16.8
2017-09-21T04:21:28.683Z,16.8
2017-09-21T04:21:56.725Z,16.82
2017-09-21T04:22:24.850Z,16.76
2017-09-21T04:22:53.008Z,16.73
2017-09-21T04:23:21.035Z,16.76
2017-09-21T04:23:49.193Z,16.81
2017-09-21T04:24:17.243Z,16.94
2017-09-21T04:24:45.177Z,16.88
2017-09-21T04:25:13.341Z,16.88
2017-09-21T04:25:41.195Z,16.88
2017-09-21T04:26:09.318Z,16.91
2017-09-21T04:26:37.462Z,16.95
2017-09-21T04:27:05.517Z,16.95
2017-09-21T04:27:33.458Z,16.95
2017-09-21T04:28:01.414Z,16.92
2017-09-21T04:28:29.329Z,16.95
2017-09-21T04:28:57.367Z,16.97
2017-09-21T04:29:25.386Z,16.95
2017-09-21T04:29:53.439Z,17.03
2017-09-21T04:30:21.465Z,16.94
2017-09-21T04:30:49.577Z,16.92
2017-09-21T04:31:17.524Z,16.91
2017-09-21T04:31:45.565Z,16.95
2017-09-21T04:32:13.598Z,16.88
2017-09-21T04:32:41.762Z,16.94
2017-09-21T04:33:09.779Z,17.03
2017-09-21T04:33:37.840Z,16.99
2017-09-21T04:34:05.783Z,17
2017-09-21T04:34:33.826Z,17.02
2017-09-21T04:35:02.033Z,17.03
2017-09-21T04:35:30.161Z,17.09
2017-09-21T04:35:58.104Z,17.06
2017-09-21T04:36:26.271Z,17.06
2017-09-21T04:36:54.422Z,17.15
2017-09-21T04:37:22.377Z,17.17
2017-09-21T04:37:50.528Z,17.17
2017-09-21T04:38:18.567Z,17.17
2017-09-21T04:38:46.740Z,17.12
2017-09-21T04:39:14.872Z,17.15
2017-09-21T04:39:42.917Z,17.1
2017-09-21T04:40:10.983Z,17.17
2017-09-21T04:40:38.848Z,17.13
2017-09-21T04:41:06.853Z,17.12
2017-09-21T04:41:34.872Z,17.07
2017-09-21T04:42:02.906Z,17.13
2017-09-21T04:42:31.026Z,17.12
2017-09-21T04:42:59.074Z,17.1
2017-09-21T04:43:27.078Z,17.1
2017-09-21T04:43:55.221Z,17.1
2017-09-21T04:44:23.267Z,17.09
2017-09-21T04:44:51.375Z,17.09
2017-09-21T04:45:19.331Z,17.03
2017-09-21T04:45:47.236Z,17
2017-09-21T04:46:15.344Z,16.97
2017-09-21T04:46:43.485Z,16.99
2017-09-21T04:47:11.435Z,16.91
2017-09-21T04:47:39.589Z,16.94
2017-09-21T04:48:07.721Z,16.91
2017-09-21T04:48:35.864Z,16.99
2017-09-21T04:49:03.719Z,16.92
2017-09-21T04:49:31.742Z,16.94
2017-09-21T04:49:59.896Z,17.05
2017-09-21T04:50:28.056Z,17
2017-09-21T04:50:56.102Z,16.88
2017-09-21T04:51:24.219Z,16.91
2017-09-21T04:51:52.162Z,16.91
2017-09-21T04:52:20.081Z,16.85
2017-09-21T04:52:48.119Z,16.85
2017-09-21T04:54:18.404Z,16.8
2017-09-21T04:54:46.398Z,16.8
2017-09-21T04:55:14.295Z,16.87
2017-09-21T04:55:42.211Z,16.77
2017-09-21T04:56:10.203Z,16.76
2017-09-21T04:56:38.277Z,16.8
2017-09-21T04:57:06.289Z,16.77
2017-09-21T04:57:34.381Z,16.69
2017-09-21T04:58:02.472Z,16.7
2017-09-21T04:58:30.472Z,16.7
2017-09-21T04:58:58.571Z,16.74
2017-09-21T04:59:26.487Z,16.67
2017-09-21T04:59:54.468Z,16.72
2017-09-21T05:00:22.542Z,16.65
2017-09-21T05:00:50.642Z,16.74
2017-09-21T05:01:18.662Z,16.72
2017-09-21T05:01:46.540Z,16.74
2017-09-21T05:02:14.430Z,16.63
2017-09-21T05:02:42.435Z,16.73
2017-09-21T05:03:10.441Z,16.69
2017-09-21T05:03:38.456Z,16.74
2017-09-21T05:04:06.569Z,16.7
2017-09-21T05:04:34.465Z,16.7
2017-09-21T05:05:02.687Z,16.7
2017-09-21T05:05:30.582Z,16.67
2017-09-21T05:05:58.649Z,16.69
2017-09-21T05:06:26.627Z,16.65
2017-09-21T05:06:54.622Z,16.73
2017-09-21T05:07:22.696Z,16.72
2017-09-21T05:07:50.683Z,16.67
2017-09-21T05:08:18.460Z,16.59
2017-09-21T05:08:46.578Z,16.58
2017-09-21T05:09:14.576Z,16.59
2017-09-21T05:09:42.560Z,16.66
2017-09-21T05:10:10.661Z,16.57
2017-09-21T05:10:38.619Z,16.55
2017-09-21T05:11:06.700Z,16.62
2017-09-21T05:11:34.795Z,16.52
2017-09-21T05:12:02.863Z,16.59
2017-09-21T05:12:30.867Z,16.55
2017-09-21T05:12:58.639Z,16.52
2017-09-21T05:13:26.606Z,16.54
2017-09-21T05:13:54.579Z,16.55
2017-09-21T05:14:22.572Z,16.55
2017-09-21T05:14:50.662Z,16.44
2017-09-21T05:15:18.864Z,16.57
2017-09-21T05:15:46.841Z,16.49
2017-09-21T05:16:14.940Z,16.49
2017-09-21T05:16:43.036Z,16.47
2017-09-21T05:17:10.958Z,16.49
2017-09-21T05:17:38.656Z,16.48
2017-09-21T05:18:06.745Z,16.49
2017-09-21T05:18:34.533Z,16.52
2017-09-21T05:19:02.529Z,16.49
2017-09-21T05:19:30.541Z,16.54
2017-09-21T05:19:58.519Z,16.49
2017-09-21T05:20:26.493Z,16.49
2017-09-21T05:20:54.585Z,16.48
2017-09-21T05:21:22.670Z,16.52
2017-09-21T05:21:50.655Z,16.52
2017-09-21T05:22:18.772Z,16.55
2017-09-21T05:22:46.774Z,16.55
2017-09-21T05:23:14.875Z,16.55
2017-09-21T05:23:42.968Z,16.58
2017-09-21T05:24:10.933Z,16.58
2017-09-21T05:24:38.924Z,16.59
2017-09-21T05:25:06.947Z,16.58
2017-09-21T05:25:35.147Z,16.62
2017-09-21T05:26:03.118Z,16.55
2017-09-21T05:26:31.217Z,16.54
2017-09-21T05:26:59.345Z,16.54
2017-09-21T05:27:27.258Z,16.51
2017-09-21T05:27:55.345Z,16.51
2017-09-21T05:28:23.443Z,16.47
2017-09-21T05:28:51.424Z,16.48
2017-09-21T05:29:19.410Z,16.4
2017-09-21T05:29:47.506Z,16.39
2017-09-21T05:30:15.504Z,16.42
2017-09-21T05:30:43.638Z,16.34
2017-09-21T05:31:11.659Z,16.37
2017-09-21T05:31:39.749Z,16.37
2017-09-21T05:32:07.844Z,16.33
2017-09-21T05:32:35.916Z,16.37
2017-09-21T05:33:04.018Z,16.34
2017-09-21T05:33:31.997Z,16.33
2017-09-21T05:34:00.029Z,16.37
2017-09-21T05:34:28.041Z,16.32
2017-09-21T05:34:56.057Z,16.37
2017-09-21T05:35:24.137Z,16.37
2017-09-21T05:35:52.053Z,16.36
2017-09-21T05:36:20.046Z,16.42
2017-09-21T05:36:48.033Z,16.4
2017-09-21T05:37:16.019Z,16.39
2017-09-21T05:37:43.895Z,16.4
2017-09-21T05:38:11.764Z,16.42
2017-09-21T05:38:39.856Z,16.48
2017-09-21T05:39:07.952Z,16.42
2017-09-21T05:39:36.055Z,16.48
2017-09-21T05:40:03.953Z,16.47
2017-09-21T05:40:32.023Z,16.42
2017-09-21T05:41:00.058Z,16.37
2017-09-21T05:41:28.144Z,16.42
2017-09-21T05:41:56.101Z,16.3
2017-09-21T05:42:24.113Z,16.33
2017-09-21T05:42:52.022Z,16.33
2017-09-21T05:43:20.014Z,16.34
2017-09-21T05:43:48.135Z,16.34
2017-09-21T05:44:16.017Z,16.39
2017-09-21T05:44:43.915Z,16.42
2017-09-21T05:45:11.919Z,16.39
2017-09-21T05:45:40.007Z,16.37
2017-09-21T05:46:08.003Z,16.39
2017-09-21T05:46:35.993Z,16.34
2017-09-21T05:47:03.908Z,16.42
2017-09-21T05:47:32.005Z,16.32
2017-09-21T05:48:00.008Z,16.32
2017-09-21T05:48:28.075Z,16.33
2017-09-21T05:48:55.963Z,16.33
2017-09-21T05:49:24.032Z,16.33
2017-09-21T05:49:51.907Z,16.29
2017-09-21T05:50:20.018Z,16.25
2017-09-21T05:50:48.121Z,16.3
2017-09-21T05:51:16.134Z,16.29
2017-09-21T05:51:44.109Z,16.33
2017-09-21T05:52:12.206Z,16.32
2017-09-21T05:52:40.083Z,16.33
2017-09-21T05:53:07.973Z,16.29
2017-09-21T05:53:35.961Z,16.3
2017-09-21T05:54:03.965Z,16.21
2017-09-21T05:54:31.853Z,16.32
2017-09-21T05:54:59.752Z,16.32
2017-09-21T05:55:27.823Z,16.22
2017-09-21T05:55:55.919Z,16.36
2017-09-21T05:56:23.982Z,16.22
2017-09-21T05:56:52.066Z,16.25
2017-09-21T05:57:20.147Z,16.32
2017-09-21T05:57:48.254Z,16.17
2017-09-21T05:58:16.264Z,16.21
2017-09-21T05:58:44.261Z,16.25
2017-09-21T05:59:12.042Z,16.27
2017-09-21T05:59:40.115Z,16.22
2017-09-21T06:00:08.128Z,16.25
2017-09-21T06:00:36.086Z,16.1
2017-09-21T06:01:04.177Z,16.1
2017-09-21T06:01:32.185Z,16.11
2017-09-21T06:02:00.273Z,16.06
2017-09-21T06:02:28.207Z,16.18
2017-09-21T06:02:56.275Z,16.04
2017-09-21T06:03:24.388Z,16.04
2017-09-21T06:03:52.378Z,16.1
2017-09-21T06:04:20.314Z,16.1
2017-09-21T06:04:48.428Z,16.04